sensor_id;sensor_type;location;lat;lon;timestamp;temperature;humidity
17715;DHT22;8977;50.902;4.314;2022-09-01T00:00:08;23.50;95.20
17715;DHT22;8977;50.902;4.314;2022-09-01T00:02:36;23.50;94.70
17715;DHT22;8977;50.902;4.314;2022-09-01T00:05:05;23.50;94.70
17715;DHT22;8977;50.902;4.314;2022-09-01T00:07:33;23.50;94.70
17715;DHT22;8977;50.902;4.314;2022-09-01T00:10:00;23.40;94.70
17715;DHT22;8977;50.902;4.314;2022-09-01T00:12:29;23.40;94.80
17715;DHT22;8977;50.902;4.314;2022-09-01T00:14:56;23.40;94.80
17715;DHT22;8977;50.902;4.314;2022-09-01T00:17:24;23.40;94.80
17715;DHT22;8977;50.902;4.314;2022-09-01T00:19:51;23.30;94.90
17715;DHT22;8977;50.902;4.314;2022-09-01T00:22:19;23.30;94.90
17715;DHT22;8977;50.902;4.314;2022-09-01T00:24:47;23.30;95.00
17715;DHT22;8977;50.902;4.314;2022-09-01T00:27:14;23.20;95.20
17715;DHT22;8977;50.902;4.314;2022-09-01T00:29:41;23.20;95.10
17715;DHT22;8977;50.902;4.314;2022-09-01T00:32:08;23.20;95.20
17715;DHT22;8977;50.902;4.314;2022-09-01T00:34:35;23.10;95.30
17715;DHT22;8977;50.902;4.314;2022-09-01T00:37:02;23.10;95.30
17715;DHT22;8977;50.902;4.314;2022-09-01T00:39:30;23.10;95.30
17715;DHT22;8977;50.902;4.314;2022-09-01T00:41:57;23.10;95.30
17715;DHT22;8977;50.902;4.314;2022-09-01T00:44:24;23.10;95.20
17715;DHT22;8977;50.902;4.314;2022-09-01T00:46:55;23.00;95.20
17715;DHT22;8977;50.902;4.314;2022-09-01T00:49:28;23.00;95.10
17715;DHT22;8977;50.902;4.314;2022-09-01T00:51:59;23.00;95.10
17715;DHT22;8977;50.902;4.314;2022-09-01T00:54:31;22.90;95.10
17715;DHT22;8977;50.902;4.314;2022-09-01T00:56:59;22.90;95.10
17715;DHT22;8977;50.902;4.314;2022-09-01T00:59:27;22.90;95.10
17715;DHT22;8977;50.902;4.314;2022-09-01T01:01:54;22.90;95.10
17715;DHT22;8977;50.902;4.314;2022-09-01T01:04:23;22.90;95.10
17715;DHT22;8977;50.902;4.314;2022-09-01T01:06:53;22.90;95.20
17715;DHT22;8977;50.902;4.314;2022-09-01T01:09:25;22.90;95.20
17715;DHT22;8977;50.902;4.314;2022-09-01T01:11:54;22.80;95.20
17715;DHT22;8977;50.902;4.314;2022-09-01T01:14:24;22.80;95.10
17715;DHT22;8977;50.902;4.314;2022-09-01T01:16:58;22.80;95.50
17715;DHT22;8977;50.902;4.314;2022-09-01T01:19:36;22.80;95.00
17715;DHT22;8977;50.902;4.314;2022-09-01T01:22:28;22.80;95.00
17715;DHT22;8977;50.902;4.314;2022-09-01T01:25:15;22.70;94.90
17715;DHT22;8977;50.902;4.314;2022-09-01T01:27:44;22.70;94.90
17715;DHT22;8977;50.902;4.314;2022-09-01T01:30:11;22.70;94.90
17715;DHT22;8977;50.902;4.314;2022-09-01T01:32:38;22.70;94.80
17715;DHT22;8977;50.902;4.314;2022-09-01T01:35:09;22.70;94.80
17715;DHT22;8977;50.902;4.314;2022-09-01T01:37:39;22.70;94.70
17715;DHT22;8977;50.902;4.314;2022-09-01T01:40:11;22.60;94.60
17715;DHT22;8977;50.902;4.314;2022-09-01T01:42:42;22.60;94.50
17715;DHT22;8977;50.902;4.314;2022-09-01T01:45:11;22.60;94.40
17715;DHT22;8977;50.902;4.314;2022-09-01T01:47:42;22.60;94.30
17715;DHT22;8977;50.902;4.314;2022-09-01T01:50:12;22.60;94.40
17715;DHT22;8977;50.902;4.314;2022-09-01T01:52:39;22.60;94.30
17715;DHT22;8977;50.902;4.314;2022-09-01T01:55:07;22.50;94.30
17715;DHT22;8977;50.902;4.314;2022-09-01T01:57:37;22.50;94.40
17715;DHT22;8977;50.902;4.314;2022-09-01T02:00:08;22.50;94.30
17715;DHT22;8977;50.902;4.314;2022-09-01T02:02:36;22.50;94.30
17715;DHT22;8977;50.902;4.314;2022-09-01T02:05:05;22.50;94.20
17715;DHT22;8977;50.902;4.314;2022-09-01T02:07:32;22.50;94.20
17715;DHT22;8977;50.902;4.314;2022-09-01T02:09:59;22.50;94.20
17715;DHT22;8977;50.902;4.314;2022-09-01T02:12:26;22.50;94.20
17715;DHT22;8977;50.902;4.314;2022-09-01T02:14:53;22.50;94.20
17715;DHT22;8977;50.902;4.314;2022-09-01T02:17:22;22.50;94.20
17715;DHT22;8977;50.902;4.314;2022-09-01T02:19:50;22.50;94.30
17715;DHT22;8977;50.902;4.314;2022-09-01T02:22:21;22.50;94.30
17715;DHT22;8977;50.902;4.314;2022-09-01T02:24:48;22.50;94.30
17715;DHT22;8977;50.902;4.314;2022-09-01T02:27:17;22.50;94.20
17715;DHT22;8977;50.902;4.314;2022-09-01T02:29:46;22.50;94.20
17715;DHT22;8977;50.902;4.314;2022-09-01T02:32:16;22.50;94.20
17715;DHT22;8977;50.902;4.314;2022-09-01T02:34:48;22.40;94.20
17715;DHT22;8977;50.902;4.314;2022-09-01T02:37:19;22.40;94.30
17715;DHT22;8977;50.902;4.314;2022-09-01T02:39:50;22.40;94.20
17715;DHT22;8977;50.902;4.314;2022-09-01T02:42:18;22.40;94.20
17715;DHT22;8977;50.902;4.314;2022-09-01T02:44:52;22.40;94.10
17715;DHT22;8977;50.902;4.314;2022-09-01T02:47:20;22.40;94.10
17715;DHT22;8977;50.902;4.314;2022-09-01T02:49:51;22.40;94.10
17715;DHT22;8977;50.902;4.314;2022-09-01T02:52:18;22.40;94.00
17715;DHT22;8977;50.902;4.314;2022-09-01T02:54:46;22.40;94.00
17715;DHT22;8977;50.902;4.314;2022-09-01T02:57:14;22.40;93.90
17715;DHT22;8977;50.902;4.314;2022-09-01T02:59:41;22.40;93.90
17715;DHT22;8977;50.902;4.314;2022-09-01T03:02:09;22.40;93.90
17715;DHT22;8977;50.902;4.314;2022-09-01T03:04:36;22.30;93.90
17715;DHT22;8977;50.902;4.314;2022-09-01T03:07:05;22.30;94.00
17715;DHT22;8977;50.902;4.314;2022-09-01T03:09:33;22.40;93.90
17715;DHT22;8977;50.902;4.314;2022-09-01T03:12:02;22.40;94.20
17715;DHT22;8977;50.902;4.314;2022-09-01T03:14:31;22.40;93.80
17715;DHT22;8977;50.902;4.314;2022-09-01T03:16:59;22.40;93.70
17715;DHT22;8977;50.902;4.314;2022-09-01T03:19:26;22.30;93.80
17715;DHT22;8977;50.902;4.314;2022-09-01T03:22:10;22.30;93.70
17715;DHT22;8977;50.902;4.314;2022-09-01T03:24:37;22.30;93.80
17715;DHT22;8977;50.902;4.314;2022-09-01T03:27:04;22.20;93.80
17715;DHT22;8977;50.902;4.314;2022-09-01T03:29:32;22.20;93.80
17715;DHT22;8977;50.902;4.314;2022-09-01T03:31:58;22.30;93.80
17715;DHT22;8977;50.902;4.314;2022-09-01T03:34:25;22.20;93.70
17715;DHT22;8977;50.902;4.314;2022-09-01T03:36:52;22.20;93.80
17715;DHT22;8977;50.902;4.314;2022-09-01T03:39:22;22.20;93.80
17715;DHT22;8977;50.902;4.314;2022-09-01T03:41:49;22.20;93.80
17715;DHT22;8977;50.902;4.314;2022-09-01T03:44:16;22.20;93.60
17715;DHT22;8977;50.902;4.314;2022-09-01T03:46:44;22.10;93.80
17715;DHT22;8977;50.902;4.314;2022-09-01T03:49:11;22.10;93.70
17715;DHT22;8977;50.902;4.314;2022-09-01T03:51:40;22.00;93.70
17715;DHT22;8977;50.902;4.314;2022-09-01T03:54:09;22.00;93.90
17715;DHT22;8977;50.902;4.314;2022-09-01T03:56:37;22.00;93.80
17715;DHT22;8977;50.902;4.314;2022-09-01T03:59:07;22.00;93.80
17715;DHT22;8977;50.902;4.314;2022-09-01T04:01:41;22.00;93.80
17715;DHT22;8977;50.902;4.314;2022-09-01T04:04:08;21.90;93.90
17715;DHT22;8977;50.902;4.314;2022-09-01T04:06:39;21.90;93.90
17715;DHT22;8977;50.902;4.314;2022-09-01T04:09:06;21.90;93.90
17715;DHT22;8977;50.902;4.314;2022-09-01T04:11:37;21.90;93.80
17715;DHT22;8977;50.902;4.314;2022-09-01T04:14:05;21.90;93.80
17715;DHT22;8977;50.902;4.314;2022-09-01T04:16:33;21.80;94.00
17715;DHT22;8977;50.902;4.314;2022-09-01T04:19:22;21.80;93.90
17715;DHT22;8977;50.902;4.314;2022-09-01T04:21:52;21.80;93.90
17715;DHT22;8977;50.902;4.314;2022-09-01T04:24:21;21.80;93.90
17715;DHT22;8977;50.902;4.314;2022-09-01T04:26:51;21.80;93.90
17715;DHT22;8977;50.902;4.314;2022-09-01T04:29:20;21.80;93.90
17715;DHT22;8977;50.902;4.314;2022-09-01T04:31:52;21.70;93.90
17715;DHT22;8977;50.902;4.314;2022-09-01T04:34:19;21.70;94.00
17715;DHT22;8977;50.902;4.314;2022-09-01T04:36:47;21.80;93.90
17715;DHT22;8977;50.902;4.314;2022-09-01T04:39:18;21.70;93.90
17715;DHT22;8977;50.902;4.314;2022-09-01T04:41:45;21.70;93.90
17715;DHT22;8977;50.902;4.314;2022-09-01T04:44:17;21.70;94.00
17715;DHT22;8977;50.902;4.314;2022-09-01T04:46:45;21.70;94.00
17715;DHT22;8977;50.902;4.314;2022-09-01T04:49:17;21.70;94.40
17715;DHT22;8977;50.902;4.314;2022-09-01T04:51:50;21.70;94.10
17715;DHT22;8977;50.902;4.314;2022-09-01T04:54:17;21.70;94.10
17715;DHT22;8977;50.902;4.314;2022-09-01T04:56:47;21.70;94.20
17715;DHT22;8977;50.902;4.314;2022-09-01T04:59:18;21.60;94.20
17715;DHT22;8977;50.902;4.314;2022-09-01T05:01:45;21.60;94.30
17715;DHT22;8977;50.902;4.314;2022-09-01T05:04:17;21.60;94.30
17715;DHT22;8977;50.902;4.314;2022-09-01T05:06:46;21.50;94.30
17715;DHT22;8977;50.902;4.314;2022-09-01T05:09:14;21.50;94.30
17715;DHT22;8977;50.902;4.314;2022-09-01T05:11:42;21.50;94.40
17715;DHT22;8977;50.902;4.314;2022-09-01T05:14:10;21.50;94.40
17715;DHT22;8977;50.902;4.314;2022-09-01T05:16:38;21.30;94.60
17715;DHT22;8977;50.902;4.314;2022-09-01T05:19:07;21.10;94.80
17715;DHT22;8977;50.902;4.314;2022-09-01T05:21:40;21.20;94.90
17715;DHT22;8977;50.902;4.314;2022-09-01T05:24:10;21.20;94.80
17715;DHT22;8977;50.902;4.314;2022-09-01T05:26:40;21.20;94.70
17715;DHT22;8977;50.902;4.314;2022-09-01T05:29:08;21.10;94.70
17715;DHT22;8977;50.902;4.314;2022-09-01T05:31:40;21.20;94.70
17715;DHT22;8977;50.902;4.314;2022-09-01T05:34:07;21.30;94.60
17715;DHT22;8977;50.902;4.314;2022-09-01T05:36:36;21.30;94.70
17715;DHT22;8977;50.902;4.314;2022-09-01T05:39:05;21.30;94.70
17715;DHT22;8977;50.902;4.314;2022-09-01T05:41:33;21.30;94.70
17715;DHT22;8977;50.902;4.314;2022-09-01T05:44:01;21.30;94.70
17715;DHT22;8977;50.902;4.314;2022-09-01T05:46:34;21.40;94.70
17715;DHT22;8977;50.902;4.314;2022-09-01T05:49:04;21.30;94.80
17715;DHT22;8977;50.902;4.314;2022-09-01T05:51:33;21.30;94.80
17715;DHT22;8977;50.902;4.314;2022-09-01T05:54:02;21.30;94.80
17715;DHT22;8977;50.902;4.314;2022-09-01T05:56:30;21.30;94.80
17715;DHT22;8977;50.902;4.314;2022-09-01T05:58:59;21.30;94.80
17715;DHT22;8977;50.902;4.314;2022-09-01T06:01:27;21.30;94.80
17715;DHT22;8977;50.902;4.314;2022-09-01T06:03:59;21.30;94.80
17715;DHT22;8977;50.902;4.314;2022-09-01T06:06:36;21.30;94.90
17715;DHT22;8977;50.902;4.314;2022-09-01T06:09:06;21.40;94.90
17715;DHT22;8977;50.902;4.314;2022-09-01T06:11:33;21.30;94.90
17715;DHT22;8977;50.902;4.314;2022-09-01T06:14:01;21.30;95.00
17715;DHT22;8977;50.902;4.314;2022-09-01T06:16:28;21.30;95.00
17715;DHT22;8977;50.902;4.314;2022-09-01T06:18:56;21.30;95.00
17715;DHT22;8977;50.902;4.314;2022-09-01T06:21:24;21.40;95.00
17715;DHT22;8977;50.902;4.314;2022-09-01T06:23:55;21.40;94.90
17715;DHT22;8977;50.902;4.314;2022-09-01T06:26:25;21.40;95.10
17715;DHT22;8977;50.902;4.314;2022-09-01T06:28:53;21.40;95.10
17715;DHT22;8977;50.902;4.314;2022-09-01T06:31:20;21.20;95.20
17715;DHT22;8977;50.902;4.314;2022-09-01T06:33:48;21.30;95.20
17715;DHT22;8977;50.902;4.314;2022-09-01T06:36:18;21.30;95.30
17715;DHT22;8977;50.902;4.314;2022-09-01T06:38:46;21.40;95.40
17715;DHT22;8977;50.902;4.314;2022-09-01T06:41:18;21.40;95.40
17715;DHT22;8977;50.902;4.314;2022-09-01T06:43:46;21.40;95.50
17715;DHT22;8977;50.902;4.314;2022-09-01T06:46:14;21.50;95.60
17715;DHT22;8977;50.902;4.314;2022-09-01T06:48:42;21.50;95.60
17715;DHT22;8977;50.902;4.314;2022-09-01T06:51:12;21.60;95.70
17715;DHT22;8977;50.902;4.314;2022-09-01T06:53:40;21.50;95.80
17715;DHT22;8977;50.902;4.314;2022-09-01T06:56:07;21.50;95.90
17715;DHT22;8977;50.902;4.314;2022-09-01T06:58:36;21.50;95.90
17715;DHT22;8977;50.902;4.314;2022-09-01T07:01:06;21.50;95.90
17715;DHT22;8977;50.902;4.314;2022-09-01T07:03:40;21.60;96.00
17715;DHT22;8977;50.902;4.314;2022-09-01T07:06:09;21.60;96.20
17715;DHT22;8977;50.902;4.314;2022-09-01T07:08:36;21.60;96.10
17715;DHT22;8977;50.902;4.314;2022-09-01T07:11:05;21.70;96.00
17715;DHT22;8977;50.902;4.314;2022-09-01T07:13:33;21.70;96.10
17715;DHT22;8977;50.902;4.314;2022-09-01T07:16:02;21.70;96.10
17715;DHT22;8977;50.902;4.314;2022-09-01T07:18:31;21.70;96.10
17715;DHT22;8977;50.902;4.314;2022-09-01T07:20:59;21.80;96.10
17715;DHT22;8977;50.902;4.314;2022-09-01T07:23:31;21.90;96.20
17715;DHT22;8977;50.902;4.314;2022-09-01T07:25:58;21.90;96.10
17715;DHT22;8977;50.902;4.314;2022-09-01T07:28:25;21.90;96.00
17715;DHT22;8977;50.902;4.314;2022-09-01T07:30:56;21.90;96.10
17715;DHT22;8977;50.902;4.314;2022-09-01T07:33:26;22.00;96.10
17715;DHT22;8977;50.902;4.314;2022-09-01T07:35:55;22.10;96.10
17715;DHT22;8977;50.902;4.314;2022-09-01T07:38:22;22.10;96.10
17715;DHT22;8977;50.902;4.314;2022-09-01T07:40:49;22.20;96.10
17715;DHT22;8977;50.902;4.314;2022-09-01T07:43:22;22.20;96.20
17715;DHT22;8977;50.902;4.314;2022-09-01T07:45:52;22.20;96.30
17715;DHT22;8977;50.902;4.314;2022-09-01T07:48:22;22.30;96.30
17715;DHT22;8977;50.902;4.314;2022-09-01T07:50:52;22.30;96.40
17715;DHT22;8977;50.902;4.314;2022-09-01T07:53:23;22.30;96.30
17715;DHT22;8977;50.902;4.314;2022-09-01T07:55:52;22.30;96.40
17715;DHT22;8977;50.902;4.314;2022-09-01T07:58:21;22.40;96.30
17715;DHT22;8977;50.902;4.314;2022-09-01T08:00:49;22.40;96.30
17715;DHT22;8977;50.902;4.314;2022-09-01T08:03:18;22.50;96.30
17715;DHT22;8977;50.902;4.314;2022-09-01T08:05:44;22.50;96.20
17715;DHT22;8977;50.902;4.314;2022-09-01T08:08:13;22.60;96.20
17715;DHT22;8977;50.902;4.314;2022-09-01T08:10:41;22.60;96.10
17715;DHT22;8977;50.902;4.314;2022-09-01T08:13:09;22.60;96.10
17715;DHT22;8977;50.902;4.314;2022-09-01T08:15:37;22.70;96.20
17715;DHT22;8977;50.902;4.314;2022-09-01T08:18:04;22.70;96.30
17715;DHT22;8977;50.902;4.314;2022-09-01T08:20:32;22.70;96.30
17715;DHT22;8977;50.902;4.314;2022-09-01T08:23:02;22.80;96.30
17715;DHT22;8977;50.902;4.314;2022-09-01T08:25:31;22.80;96.30
17715;DHT22;8977;50.902;4.314;2022-09-01T08:27:59;22.80;96.20
17715;DHT22;8977;50.902;4.314;2022-09-01T08:30:27;22.90;96.20
17715;DHT22;8977;50.902;4.314;2022-09-01T08:32:54;22.90;96.20
17715;DHT22;8977;50.902;4.314;2022-09-01T08:35:22;23.00;96.30
17715;DHT22;8977;50.902;4.314;2022-09-01T08:37:49;23.00;96.20
17715;DHT22;8977;50.902;4.314;2022-09-01T08:40:18;23.10;96.10
17715;DHT22;8977;50.902;4.314;2022-09-01T08:42:58;23.20;96.00
17715;DHT22;8977;50.902;4.314;2022-09-01T08:45:31;23.20;95.90
17715;DHT22;8977;50.902;4.314;2022-09-01T08:48:01;23.20;95.80
17715;DHT22;8977;50.902;4.314;2022-09-01T08:50:37;23.20;95.80
17715;DHT22;8977;50.902;4.314;2022-09-01T08:53:08;23.30;95.90
17715;DHT22;8977;50.902;4.314;2022-09-01T08:55:42;23.40;96.00
17715;DHT22;8977;50.902;4.314;2022-09-01T08:58:14;23.40;95.90
17715;DHT22;8977;50.902;4.314;2022-09-01T09:00:44;23.50;95.80
17715;DHT22;8977;50.902;4.314;2022-09-01T09:03:18;23.50;95.70
17715;DHT22;8977;50.902;4.314;2022-09-01T09:05:56;23.60;95.70
17715;DHT22;8977;50.902;4.314;2022-09-01T09:08:43;23.60;95.60
17715;DHT22;8977;50.902;4.314;2022-09-01T09:14:10;23.70;95.60
17715;DHT22;8977;50.902;4.314;2022-09-01T09:16:41;23.80;95.40
17715;DHT22;8977;50.902;4.314;2022-09-01T09:19:12;23.80;95.40
17715;DHT22;8977;50.902;4.314;2022-09-01T09:21:43;23.90;95.40
17715;DHT22;8977;50.902;4.314;2022-09-01T09:24:14;24.00;95.50
17715;DHT22;8977;50.902;4.314;2022-09-01T09:26:41;24.00;95.30
17715;DHT22;8977;50.902;4.314;2022-09-01T09:29:14;24.10;95.40
17715;DHT22;8977;50.902;4.314;2022-09-01T09:31:41;24.10;95.40
17715;DHT22;8977;50.902;4.314;2022-09-01T09:34:26;24.20;95.20
17715;DHT22;8977;50.902;4.314;2022-09-01T09:36:54;24.20;95.20
17715;DHT22;8977;50.902;4.314;2022-09-01T09:39:21;24.20;95.20
17715;DHT22;8977;50.902;4.314;2022-09-01T09:42:03;24.30;95.10
17715;DHT22;8977;50.902;4.314;2022-09-01T09:44:40;24.40;95.10
17715;DHT22;8977;50.902;4.314;2022-09-01T09:47:08;24.40;95.00
17715;DHT22;8977;50.902;4.314;2022-09-01T09:49:35;24.50;94.90
17715;DHT22;8977;50.902;4.314;2022-09-01T09:52:15;24.50;94.70
17715;DHT22;8977;50.902;4.314;2022-09-01T09:54:58;24.60;94.70
17715;DHT22;8977;50.902;4.314;2022-09-01T09:57:26;24.70;94.80
17715;DHT22;8977;50.902;4.314;2022-09-01T09:59:58;24.70;94.70
17715;DHT22;8977;50.902;4.314;2022-09-01T10:02:30;24.70;94.60
17715;DHT22;8977;50.902;4.314;2022-09-01T10:04:58;24.90;94.20
17715;DHT22;8977;50.902;4.314;2022-09-01T10:07:31;24.90;94.20
17715;DHT22;8977;50.902;4.314;2022-09-01T10:10:00;24.90;93.70
17715;DHT22;8977;50.902;4.314;2022-09-01T10:12:28;25.00;93.60
17715;DHT22;8977;50.902;4.314;2022-09-01T10:14:59;25.00;93.60
17715;DHT22;8977;50.902;4.314;2022-09-01T10:17:30;25.10;93.90
17715;DHT22;8977;50.902;4.314;2022-09-01T10:20:03;25.10;93.80
17715;DHT22;8977;50.902;4.314;2022-09-01T10:22:33;25.10;93.50
17715;DHT22;8977;50.902;4.314;2022-09-01T10:25:01;25.10;93.20
17715;DHT22;8977;50.902;4.314;2022-09-01T10:27:30;25.20;92.70
17715;DHT22;8977;50.902;4.314;2022-09-01T10:30:05;25.30;92.10
17715;DHT22;8977;50.902;4.314;2022-09-01T10:32:37;25.30;91.50
17715;DHT22;8977;50.902;4.314;2022-09-01T10:35:07;25.40;91.30
17715;DHT22;8977;50.902;4.314;2022-09-01T10:37:38;25.40;91.20
17715;DHT22;8977;50.902;4.314;2022-09-01T10:42:56;25.50;90.70
17715;DHT22;8977;50.902;4.314;2022-09-01T10:45:33;25.50;90.50
17715;DHT22;8977;50.902;4.314;2022-09-01T10:48:23;25.60;90.90
17715;DHT22;8977;50.902;4.314;2022-09-01T10:50:53;25.60;90.60
17715;DHT22;8977;50.902;4.314;2022-09-01T10:53:39;25.60;90.70
17715;DHT22;8977;50.902;4.314;2022-09-01T10:56:09;25.70;90.60
17715;DHT22;8977;50.902;4.314;2022-09-01T10:58:59;25.70;90.50
17715;DHT22;8977;50.902;4.314;2022-09-01T11:02:08;25.80;90.70
17715;DHT22;8977;50.902;4.314;2022-09-01T11:05:11;25.80;90.10
17715;DHT22;8977;50.902;4.314;2022-09-01T11:07:38;25.70;90.00
17715;DHT22;8977;50.902;4.314;2022-09-01T11:10:25;25.80;90.10
17715;DHT22;8977;50.902;4.314;2022-09-01T11:13:22;25.80;89.60
17715;DHT22;8977;50.902;4.314;2022-09-01T11:15:52;25.80;89.70
17715;DHT22;8977;50.902;4.314;2022-09-01T11:18:25;25.80;89.90
17715;DHT22;8977;50.902;4.314;2022-09-01T11:20:54;25.90;89.80
17715;DHT22;8977;50.902;4.314;2022-09-01T11:23:23;25.90;89.60
17715;DHT22;8977;50.902;4.314;2022-09-01T11:25:52;25.90;90.00
17715;DHT22;8977;50.902;4.314;2022-09-01T11:28:35;25.90;89.70
17715;DHT22;8977;50.902;4.314;2022-09-01T11:31:20;25.90;89.10
17715;DHT22;8977;50.902;4.314;2022-09-01T11:36:55;25.90;89.20
17715;DHT22;8977;50.902;4.314;2022-09-01T11:39:32;25.90;89.10
17715;DHT22;8977;50.902;4.314;2022-09-01T11:42:04;25.90;89.30
17715;DHT22;8977;50.902;4.314;2022-09-01T11:44:37;25.90;89.70
17715;DHT22;8977;50.902;4.314;2022-09-01T11:47:14;25.90;89.30
17715;DHT22;8977;50.902;4.314;2022-09-01T11:49:48;26.00;89.60
17715;DHT22;8977;50.902;4.314;2022-09-01T11:52:19;26.10;89.60
17715;DHT22;8977;50.902;4.314;2022-09-01T11:54:47;26.10;88.40
17715;DHT22;8977;50.902;4.314;2022-09-01T11:57:28;26.10;88.40
17715;DHT22;8977;50.902;4.314;2022-09-01T11:59:56;26.20;88.40
17715;DHT22;8977;50.902;4.314;2022-09-01T12:02:25;26.20;88.60
17715;DHT22;8977;50.902;4.314;2022-09-01T12:04:53;26.30;88.40
17715;DHT22;8977;50.902;4.314;2022-09-01T12:07:28;26.30;88.40
17715;DHT22;8977;50.902;4.314;2022-09-01T12:09:55;26.40;88.10
17715;DHT22;8977;50.902;4.314;2022-09-01T12:12:31;26.50;87.40
17715;DHT22;8977;50.902;4.314;2022-09-01T12:15:00;26.50;88.10
17715;DHT22;8977;50.902;4.314;2022-09-01T12:17:27;26.50;88.60
17715;DHT22;8977;50.902;4.314;2022-09-01T12:19:54;26.60;88.30
17715;DHT22;8977;50.902;4.314;2022-09-01T12:22:22;26.60;87.50
17715;DHT22;8977;50.902;4.314;2022-09-01T12:24:52;26.70;87.60
17715;DHT22;8977;50.902;4.314;2022-09-01T12:27:20;26.70;87.30
17715;DHT22;8977;50.902;4.314;2022-09-01T12:29:47;26.80;87.50
17715;DHT22;8977;50.902;4.314;2022-09-01T12:32:15;26.80;87.70
17715;DHT22;8977;50.902;4.314;2022-09-01T12:34:44;26.90;87.10
17715;DHT22;8977;50.902;4.314;2022-09-01T12:37:20;27.00;87.30
17715;DHT22;8977;50.902;4.314;2022-09-01T12:39:50;27.00;86.90
17715;DHT22;8977;50.902;4.314;2022-09-01T12:42:26;27.10;86.90
17715;DHT22;8977;50.902;4.314;2022-09-01T12:44:56;27.20;86.50
17715;DHT22;8977;50.902;4.314;2022-09-01T12:47:46;27.30;86.50
17715;DHT22;8977;50.902;4.314;2022-09-01T12:50:41;27.40;86.40
17715;DHT22;8977;50.902;4.314;2022-09-01T12:53:18;27.40;86.00
17715;DHT22;8977;50.902;4.314;2022-09-01T12:58:47;27.50;85.90
17715;DHT22;8977;50.902;4.314;2022-09-01T13:01:30;27.50;86.10
17715;DHT22;8977;50.902;4.314;2022-09-01T13:04:11;27.60;85.40
17715;DHT22;8977;50.902;4.314;2022-09-01T13:06:38;27.50;85.00
17715;DHT22;8977;50.902;4.314;2022-09-01T13:09:05;27.50;85.40
17715;DHT22;8977;50.902;4.314;2022-09-01T13:11:34;27.50;85.70
17715;DHT22;8977;50.902;4.314;2022-09-01T13:14:00;27.60;85.90
17715;DHT22;8977;50.902;4.314;2022-09-01T13:16:27;27.70;85.70
17715;DHT22;8977;50.902;4.314;2022-09-01T13:18:54;27.70;84.90
17715;DHT22;8977;50.902;4.314;2022-09-01T13:21:21;27.70;85.20
17715;DHT22;8977;50.902;4.314;2022-09-01T13:23:48;27.80;85.50
17715;DHT22;8977;50.902;4.314;2022-09-01T13:26:15;27.80;85.20
17715;DHT22;8977;50.902;4.314;2022-09-01T13:28:43;27.70;84.40
17715;DHT22;8977;50.902;4.314;2022-09-01T13:31:11;27.60;84.80
17715;DHT22;8977;50.902;4.314;2022-09-01T13:33:38;27.50;85.00
17715;DHT22;8977;50.902;4.314;2022-09-01T13:36:05;27.40;85.50
17715;DHT22;8977;50.902;4.314;2022-09-01T13:38:32;27.30;86.50
17715;DHT22;8977;50.902;4.314;2022-09-01T13:40:59;27.30;85.60
17715;DHT22;8977;50.902;4.314;2022-09-01T13:43:27;27.30;85.90
17715;DHT22;8977;50.902;4.314;2022-09-01T13:45:55;27.30;85.90
17715;DHT22;8977;50.902;4.314;2022-09-01T13:48:22;27.30;85.70
17715;DHT22;8977;50.902;4.314;2022-09-01T13:50:50;27.30;85.70
17715;DHT22;8977;50.902;4.314;2022-09-01T13:53:17;27.40;86.10
17715;DHT22;8977;50.902;4.314;2022-09-01T13:55:44;27.40;85.90
17715;DHT22;8977;50.902;4.314;2022-09-01T13:58:11;27.50;85.70
17715;DHT22;8977;50.902;4.314;2022-09-01T14:00:40;27.60;85.10
17715;DHT22;8977;50.902;4.314;2022-09-01T14:03:12;27.60;85.10
17715;DHT22;8977;50.902;4.314;2022-09-01T14:05:41;27.60;84.50
17715;DHT22;8977;50.902;4.314;2022-09-01T14:08:10;27.60;84.30
17715;DHT22;8977;50.902;4.314;2022-09-01T14:10:39;27.60;84.60
17715;DHT22;8977;50.902;4.314;2022-09-01T14:13:07;27.60;84.50
17715;DHT22;8977;50.902;4.314;2022-09-01T14:15:34;27.50;84.40
17715;DHT22;8977;50.902;4.314;2022-09-01T14:18:02;27.50;84.80
17715;DHT22;8977;50.902;4.314;2022-09-01T14:20:32;27.50;85.00
17715;DHT22;8977;50.902;4.314;2022-09-01T14:23:00;27.40;84.80
17715;DHT22;8977;50.902;4.314;2022-09-01T14:25:29;27.40;84.90
17715;DHT22;8977;50.902;4.314;2022-09-01T14:27:56;27.30;84.80
17715;DHT22;8977;50.902;4.314;2022-09-01T14:30:26;27.30;84.70
17715;DHT22;8977;50.902;4.314;2022-09-01T14:32:53;27.20;84.50
17715;DHT22;8977;50.902;4.314;2022-09-01T14:35:21;27.10;84.20
17715;DHT22;8977;50.902;4.314;2022-09-01T14:37:51;27.00;84.70
17715;DHT22;8977;50.902;4.314;2022-09-01T14:40:18;27.00;84.60
17715;DHT22;8977;50.902;4.314;2022-09-01T14:42:47;27.00;85.20
17715;DHT22;8977;50.902;4.314;2022-09-01T14:45:16;27.00;85.30
17715;DHT22;8977;50.902;4.314;2022-09-01T14:47:44;26.90;85.10
17715;DHT22;8977;50.902;4.314;2022-09-01T14:50:11;26.80;85.00
17715;DHT22;8977;50.902;4.314;2022-09-01T14:52:38;26.80;85.30
17715;DHT22;8977;50.902;4.314;2022-09-01T14:55:07;26.80;85.30
17715;DHT22;8977;50.902;4.314;2022-09-01T14:57:35;26.80;85.20
17715;DHT22;8977;50.902;4.314;2022-09-01T15:00:03;26.70;84.90
17715;DHT22;8977;50.902;4.314;2022-09-01T15:02:30;26.70;85.00
17715;DHT22;8977;50.902;4.314;2022-09-01T15:04:57;26.60;85.00
17715;DHT22;8977;50.902;4.314;2022-09-01T15:07:24;26.60;85.10
17715;DHT22;8977;50.902;4.314;2022-09-01T15:09:51;26.60;85.30
17715;DHT22;8977;50.902;4.314;2022-09-01T15:12:19;26.60;85.90
17715;DHT22;8977;50.902;4.314;2022-09-01T15:14:46;26.60;86.10
17715;DHT22;8977;50.902;4.314;2022-09-01T15:17:13;26.60;85.60
17715;DHT22;8977;50.902;4.314;2022-09-01T15:19:40;26.60;85.60
17715;DHT22;8977;50.902;4.314;2022-09-01T15:22:07;26.60;85.30
17715;DHT22;8977;50.902;4.314;2022-09-01T15:24:37;26.60;84.80
17715;DHT22;8977;50.902;4.314;2022-09-01T15:27:04;26.70;84.70
17715;DHT22;8977;50.902;4.314;2022-09-01T15:29:33;26.70;83.90
17715;DHT22;8977;50.902;4.314;2022-09-01T15:32:03;26.80;84.20
17715;DHT22;8977;50.902;4.314;2022-09-01T15:34:30;26.90;82.10
17715;DHT22;8977;50.902;4.314;2022-09-01T15:36:57;26.90;82.40
17715;DHT22;8977;50.902;4.314;2022-09-01T15:39:23;27.00;82.90
17715;DHT22;8977;50.902;4.314;2022-09-01T15:41:50;27.10;83.90
17715;DHT22;8977;50.902;4.314;2022-09-01T15:44:18;27.20;82.60
17715;DHT22;8977;50.902;4.314;2022-09-01T15:46:46;27.40;81.40
17715;DHT22;8977;50.902;4.314;2022-09-01T15:49:13;27.50;80.60
17715;DHT22;8977;50.902;4.314;2022-09-01T15:51:43;27.60;80.80
17715;DHT22;8977;50.902;4.314;2022-09-01T15:54:12;27.60;80.80
17715;DHT22;8977;50.902;4.314;2022-09-01T15:56:39;27.70;80.00
17715;DHT22;8977;50.902;4.314;2022-09-01T15:59:08;27.80;79.50
17715;DHT22;8977;50.902;4.314;2022-09-01T16:01:37;27.90;80.20
17715;DHT22;8977;50.902;4.314;2022-09-01T16:04:08;28.00;79.90
17715;DHT22;8977;50.902;4.314;2022-09-01T16:06:36;28.00;80.20
17715;DHT22;8977;50.902;4.314;2022-09-01T16:09:05;28.10;79.60
17715;DHT22;8977;50.902;4.314;2022-09-01T16:11:32;28.10;79.60
17715;DHT22;8977;50.902;4.314;2022-09-01T16:13:59;28.20;79.40